createdAt,value
2018-07-02T00:00:13.550Z,20.29
2018-07-02T00:00:45.661Z,20.30
2018-07-02T00:01:17.688Z,20.30
2018-07-02T00:01:49.715Z,20.32
2018-07-02T00:02:21.723Z,20.32
2018-07-02T00:02:53.741Z,20.24
2018-07-02T00:03:25.749Z,20.23
2018-07-02T00:03:58.105Z,20.23
2018-07-02T00:04:30.112Z,20.22
2018-07-02T00:05:02.124Z,20.21
2018-07-02T00:05:34.138Z,20.20
2018-07-02T00:06:06.207Z,20.20
2018-07-02T00:06:38.240Z,20.13
2018-07-02T00:07:10.260Z,20.12
2018-07-02T00:07:42.283Z,20.11
2018-07-02T00:08:14.298Z,20.12
2018-07-02T00:08:46.313Z,20.14
2018-07-02T00:09:18.335Z,20.16
2018-07-02T00:09:50.366Z,20.20
2018-07-02T00:10:22.391Z,20.17
2018-07-02T00:10:54.423Z,20.23
2018-07-02T00:11:26.454Z,20.28
2018-07-02T00:11:58.475Z,20.26
2018-07-02T00:12:30.504Z,20.30
2018-07-02T00:13:02.523Z,20.28
2018-07-02T00:13:34.542Z,20.27
2018-07-02T00:14:06.551Z,20.25
2018-07-02T00:14:38.629Z,20.23
2018-07-02T00:15:10.594Z,20.23
2018-07-02T00:15:42.670Z,20.30
2018-07-02T00:16:14.638Z,20.25
2018-07-02T00:16:46.682Z,20.19
2018-07-02T00:17:18.701Z,20.17
2018-07-02T00:17:50.755Z,20.18
2018-07-02T00:18:22.769Z,20.20
2018-07-02T00:18:54.778Z,20.18
2018-07-02T00:19:26.806Z,20.24
2018-07-02T00:19:58.845Z,20.24
2018-07-02T00:20:31.256Z,20.23
2018-07-02T00:21:03.163Z,20.18
2018-07-02T00:21:35.174Z,20.19
2018-07-02T00:22:07.191Z,20.26
2018-07-02T00:22:39.215Z,20.28
2018-07-02T00:23:11.260Z,20.31
2018-07-02T00:23:43.265Z,20.32
2018-07-02T00:24:15.289Z,20.31
2018-07-02T00:24:47.296Z,20.27
2018-07-02T00:25:19.304Z,20.24
2018-07-02T00:25:51.383Z,20.25
2018-07-02T00:26:23.343Z,20.24
2018-07-02T00:26:55.358Z,20.25
2018-07-02T00:27:27.468Z,20.23
2018-07-02T00:27:59.497Z,20.23
2018-07-02T00:28:31.510Z,20.22
2018-07-02T00:29:03.510Z,20.20
2018-07-02T00:29:35.526Z,20.21
2018-07-02T00:30:07.694Z,20.20
2018-07-02T00:30:39.711Z,20.26
2018-07-02T00:31:11.765Z,20.33
2018-07-02T00:31:43.826Z,20.35
2018-07-02T00:32:15.815Z,20.30
2018-07-02T00:32:47.846Z,20.31
2018-07-02T00:33:19.867Z,20.32
2018-07-02T00:33:51.885Z,20.33
2018-07-02T00:34:23.918Z,20.28
2018-07-02T00:34:55.955Z,20.28
2018-07-02T00:35:27.971Z,20.26
2018-07-02T00:35:59.984Z,20.27
2018-07-02T00:36:31.986Z,20.32
2018-07-02T00:37:04.023Z,20.33
2018-07-02T00:37:36.049Z,20.36
2018-07-02T00:38:08.074Z,20.34
2018-07-02T00:38:40.095Z,20.32
2018-07-02T00:39:12.123Z,20.33
2018-07-02T00:39:44.154Z,20.32
2018-07-02T00:40:16.191Z,20.25
2018-07-02T00:40:48.198Z,20.22
2018-07-02T00:41:20.194Z,20.22
2018-07-02T00:41:52.213Z,20.21
2018-07-02T00:42:24.546Z,20.20
2018-07-02T00:42:56.555Z,20.19
2018-07-02T00:43:28.597Z,20.18
2018-07-02T00:44:00.642Z,20.18
2018-07-02T00:44:32.642Z,20.16
2018-07-02T00:45:04.651Z,20.17
2018-07-02T00:45:36.661Z,20.18
2018-07-02T00:46:08.680Z,20.18
2018-07-02T00:46:40.684Z,20.21
2018-07-02T00:47:12.709Z,20.21
2018-07-02T00:47:44.720Z,20.24
2018-07-02T00:48:16.743Z,20.27
2018-07-02T00:48:48.770Z,20.30
2018-07-02T00:49:20.783Z,20.29
2018-07-02T00:49:52.819Z,20.32
2018-07-02T00:50:24.850Z,20.36
2018-07-02T00:50:56.871Z,20.37
2018-07-02T00:51:28.883Z,20.42
2018-07-02T00:52:00.892Z,20.49
2018-07-02T00:52:32.927Z,20.54
2018-07-02T00:53:04.931Z,20.60
2018-07-02T00:53:36.977Z,20.67
2018-07-02T00:54:08.991Z,20.71
2018-07-02T00:54:41.010Z,20.72
2018-07-02T00:55:13.031Z,20.72
2018-07-02T00:55:45.078Z,20.70
2018-07-02T00:56:17.079Z,20.73
2018-07-02T00:56:49.093Z,20.77
2018-07-02T00:57:21.104Z,20.78
2018-07-02T00:57:53.134Z,20.77
2018-07-02T00:58:25.179Z,20.77
2018-07-02T00:58:57.184Z,20.75
2018-07-02T00:59:29.207Z,20.75
2018-07-02T01:00:01.266Z,20.75
2018-07-02T01:00:33.309Z,20.73
2018-07-02T01:01:05.326Z,20.70
2018-07-02T01:01:37.381Z,20.74
2018-07-02T01:02:09.373Z,20.74
2018-07-02T01:02:41.392Z,20.76
2018-07-02T01:03:13.402Z,20.73
2018-07-02T01:03:45.431Z,20.72
2018-07-02T01:04:17.442Z,20.72
2018-07-02T01:04:49.467Z,20.74
2018-07-02T01:05:21.486Z,20.74
2018-07-02T01:05:53.887Z,20.64
2018-07-02T01:06:25.789Z,20.62
2018-07-02T01:06:57.804Z,20.65
2018-07-02T01:07:29.827Z,20.64
2018-07-02T01:08:01.828Z,20.67
2018-07-02T01:08:33.876Z,20.68
2018-07-02T01:09:05.901Z,20.64
2018-07-02T01:09:37.945Z,20.58
2018-07-02T01:10:09.957Z,20.56
2018-07-02T01:10:41.966Z,20.61
2018-07-02T01:11:13.998Z,20.68
2018-07-02T01:11:46.014Z,20.72
2018-07-02T01:12:18.089Z,20.73
2018-07-02T01:12:50.109Z,20.74
2018-07-02T01:13:22.118Z,20.71
2018-07-02T01:13:54.127Z,20.73
2018-07-02T01:14:26.147Z,20.74
2018-07-02T01:14:58.160Z,20.77
2018-07-02T01:15:30.171Z,20.76
2018-07-02T01:16:02.198Z,20.81
2018-07-02T01:16:34.219Z,20.85
2018-07-02T01:17:06.235Z,20.87
2018-07-02T01:17:38.279Z,20.83
2018-07-02T01:18:10.300Z,20.86
2018-07-02T01:18:42.319Z,20.85
2018-07-02T01:19:14.326Z,20.83
2018-07-02T01:19:46.339Z,20.81
2018-07-02T01:20:18.364Z,20.81
2018-07-02T01:20:50.370Z,20.78
2018-07-02T01:21:22.375Z,20.73
2018-07-02T01:21:54.390Z,20.73
2018-07-02T01:22:26.417Z,20.75
2018-07-02T01:22:58.425Z,20.75
2018-07-02T01:23:30.461Z,20.75
2018-07-02T01:24:02.469Z,20.79
2018-07-02T01:24:34.484Z,20.82
2018-07-02T01:25:06.493Z,20.85
2018-07-02T01:25:38.516Z,20.85
2018-07-02T01:26:10.524Z,20.87
2018-07-02T01:26:42.550Z,20.87
2018-07-02T01:27:14.576Z,20.86
2018-07-02T01:27:46.595Z,20.86
2018-07-02T01:28:18.582Z,20.84
2018-07-02T01:28:50.602Z,20.85
2018-07-02T01:29:22.609Z,20.86
2018-07-02T01:29:54.638Z,20.87
2018-07-02T01:30:26.663Z,20.89
2018-07-02T01:30:58.668Z,20.89
2018-07-02T01:31:30.690Z,20.86
2018-07-02T01:32:02.699Z,20.88
2018-07-02T01:32:34.786Z,20.88
2018-07-02T01:33:06.795Z,20.87
2018-07-02T01:33:38.809Z,20.90
2018-07-02T01:34:10.826Z,20.89
2018-07-02T01:34:42.839Z,20.84
2018-07-02T01:35:14.847Z,20.77
2018-07-02T01:35:46.879Z,20.71
2018-07-02T01:36:18.887Z,20.70
2018-07-02T01:36:50.892Z,20.72
2018-07-02T01:37:22.903Z,20.68
2018-07-02T01:37:54.913Z,20.70
2018-07-02T01:38:26.939Z,20.66
2018-07-02T01:38:58.968Z,20.60
2018-07-02T01:39:30.972Z,20.57
2018-07-02T01:40:02.991Z,20.58
2018-07-02T01:40:34.997Z,20.59
2018-07-02T01:41:07.012Z,20.62
2018-07-02T01:41:39.019Z,20.63
2018-07-02T01:42:11.022Z,20.62
2018-07-02T01:42:43.103Z,20.58
2018-07-02T01:43:15.116Z,20.60
2018-07-02T01:43:47.160Z,20.62
2018-07-02T01:44:19.169Z,20.60
2018-07-02T01:44:51.202Z,20.57
2018-07-02T01:45:23.259Z,20.54
2018-07-02T01:45:55.268Z,20.47
2018-07-02T01:46:27.276Z,20.45
2018-07-02T01:46:59.309Z,20.39
2018-07-02T01:47:31.342Z,20.41
2018-07-02T01:48:03.363Z,20.43
2018-07-02T01:48:35.375Z,20.44
2018-07-02T01:49:07.416Z,20.45
2018-07-02T01:49:39.424Z,20.46
2018-07-02T01:50:11.436Z,20.46
2018-07-02T01:50:43.495Z,20.51
2018-07-02T01:51:15.474Z,20.57
2018-07-02T01:51:47.914Z,20.63
2018-07-02T01:52:19.795Z,20.67
2018-07-02T01:52:51.896Z,20.71
2018-07-02T01:53:23.931Z,20.75
2018-07-02T01:53:55.941Z,20.78
2018-07-02T01:54:28.000Z,20.79
2018-07-02T01:55:00.034Z,20.80
2018-07-02T01:55:32.036Z,20.80
2018-07-02T01:56:04.047Z,20.77
2018-07-02T01:56:36.063Z,20.72
2018-07-02T01:57:08.074Z,20.72
2018-07-02T01:57:40.122Z,20.75
2018-07-02T01:58:12.094Z,20.75
2018-07-02T01:58:44.103Z,20.73
2018-07-02T01:59:16.127Z,20.70
2018-07-02T01:59:48.146Z,20.61
2018-07-02T02:00:20.189Z,20.61
2018-07-02T02:00:52.196Z,20.62
2018-07-02T02:01:24.207Z,20.61
2018-07-02T02:01:56.227Z,20.59
2018-07-02T02:02:28.269Z,20.58
2018-07-02T02:03:00.296Z,20.60
2018-07-02T02:03:32.309Z,20.60
2018-07-02T02:04:04.318Z,20.64
2018-07-02T02:04:36.343Z,20.66
2018-07-02T02:05:08.355Z,20.69
2018-07-02T02:05:40.374Z,20.72
2018-07-02T02:06:12.387Z,20.76
2018-07-02T02:06:44.407Z,20.75
2018-07-02T02:07:16.411Z,20.72
2018-07-02T02:07:48.458Z,20.74
2018-07-02T02:08:20.471Z,20.74
2018-07-02T02:08:52.478Z,20.76
2018-07-02T02:09:24.501Z,20.78
2018-07-02T02:09:56.541Z,20.81
2018-07-02T02:10:28.546Z,20.79
2018-07-02T02:11:00.561Z,20.79
2018-07-02T02:11:32.577Z,20.81
2018-07-02T02:12:04.598Z,20.83
2018-07-02T02:12:36.627Z,20.81
2018-07-02T02:13:08.666Z,20.80
2018-07-02T02:13:40.689Z,20.83
2018-07-02T02:14:12.704Z,20.82
2018-07-02T02:14:44.734Z,20.81
2018-07-02T02:15:16.751Z,20.78
2018-07-02T02:15:48.773Z,20.78
2018-07-02T02:16:20.793Z,20.78
2018-07-02T02:16:52.786Z,20.79
2018-07-02T02:17:24.798Z,20.81
2018-07-02T02:17:56.815Z,20.82
2018-07-02T02:18:28.818Z,20.82
2018-07-02T02:19:00.836Z,20.84
2018-07-02T02:19:32.838Z,20.85
2018-07-02T02:20:04.866Z,20.86
2018-07-02T02:20:36.887Z,20.86
2018-07-02T02:21:08.885Z,20.88
2018-07-02T02:21:40.961Z,20.89
2018-07-02T02:22:12.989Z,20.89
2018-07-02T02:22:45.039Z,20.86
2018-07-02T02:23:17.011Z,20.82
2018-07-02T02:23:49.046Z,20.77
2018-07-02T02:24:21.088Z,20.71
2018-07-02T02:24:53.085Z,20.73
2018-07-02T02:25:25.105Z,20.75
2018-07-02T02:25:57.121Z,20.74
2018-07-02T02:26:29.125Z,20.76
2018-07-02T02:27:01.165Z,20.75
2018-07-02T02:27:33.163Z,20.72
2018-07-02T02:28:05.164Z,20.71
2018-07-02T02:28:37.191Z,20.72
2018-07-02T02:29:09.194Z,20.71
2018-07-02T02:29:41.211Z,20.67
2018-07-02T02:30:13.228Z,20.64
2018-07-02T02:30:45.244Z,20.60
2018-07-02T02:31:17.264Z,20.58
2018-07-02T02:31:49.266Z,20.59
2018-07-02T02:32:21.303Z,20.63
2018-07-02T02:32:53.311Z,20.64
2018-07-02T02:33:25.466Z,20.64
2018-07-02T02:33:57.471Z,20.63
2018-07-02T02:34:29.493Z,20.64
2018-07-02T02:35:01.497Z,20.65
2018-07-02T02:35:33.545Z,20.67
2018-07-02T02:36:05.548Z,20.63
2018-07-02T02:36:37.569Z,20.63
2018-07-02T02:37:09.590Z,20.61
2018-07-02T02:37:41.611Z,20.60
2018-07-02T02:38:13.647Z,20.57
2018-07-02T02:38:45.636Z,20.54
2018-07-02T02:39:17.648Z,20.53
2018-07-02T02:39:49.673Z,20.51
2018-07-02T02:40:21.688Z,20.50
2018-07-02T02:40:53.729Z,20.53
2018-07-02T02:41:25.746Z,20.56
2018-07-02T02:41:57.779Z,20.57
2018-07-02T02:42:29.793Z,20.65
2018-07-02T02:43:01.817Z,20.68
2018-07-02T02:43:33.819Z,20.69
2018-07-02T02:44:05.825Z,20.68
2018-07-02T02:44:37.846Z,20.73
2018-07-02T02:45:09.872Z,20.77
2018-07-02T02:45:41.886Z,20.77
2018-07-02T02:46:13.884Z,20.78
2018-07-02T02:46:45.905Z,20.78
2018-07-02T02:47:17.966Z,20.78
2018-07-02T02:47:49.980Z,20.77
2018-07-02T02:48:21.984Z,20.77
2018-07-02T02:48:54.011Z,20.77
2018-07-02T02:49:26.068Z,20.78
2018-07-02T02:49:58.096Z,20.79
2018-07-02T02:50:30.107Z,20.72
2018-07-02T02:51:02.108Z,20.70
2018-07-02T02:51:34.114Z,20.71
2018-07-02T02:52:06.141Z,20.69
2018-07-02T02:52:38.150Z,20.70
2018-07-02T02:53:10.172Z,20.70
2018-07-02T02:53:42.190Z,20.72
2018-07-02T02:54:14.233Z,20.70
2018-07-02T02:54:46.315Z,20.69
2018-07-02T02:55:18.376Z,20.66
2018-07-02T02:55:50.391Z,20.65
2018-07-02T02:56:22.420Z,20.65
2018-07-02T02:56:54.431Z,20.67
2018-07-02T02:57:26.841Z,20.69
2018-07-02T02:57:58.730Z,20.70
2018-07-02T02:58:30.761Z,20.70
2018-07-02T02:59:02.772Z,20.68
2018-07-02T02:59:34.779Z,20.64
2018-07-02T03:00:06.812Z,20.64
2018-07-02T03:00:38.844Z,20.62
2018-07-02T03:01:10.863Z,20.59
2018-07-02T03:01:42.858Z,20.60
2018-07-02T03:02:14.878Z,20.62
2018-07-02T03:02:46.903Z,20.59
2018-07-02T03:03:18.932Z,20.60
2018-07-02T03:03:50.955Z,20.59
2018-07-02T03:04:22.969Z,20.64
2018-07-02T03:04:54.967Z,20.63
2018-07-02T03:05:26.996Z,20.62
2018-07-02T03:05:59.005Z,20.64
2018-07-02T03:06:31.010Z,20.63
2018-07-02T03:07:03.049Z,20.60
2018-07-02T03:07:35.078Z,20.57
2018-07-02T03:08:07.091Z,20.56
2018-07-02T03:08:39.122Z,20.53
2018-07-02T03:09:11.143Z,20.51
2018-07-02T03:09:43.264Z,20.50
2018-07-02T03:10:15.203Z,20.50
2018-07-02T03:10:47.208Z,20.49
2018-07-02T03:11:19.227Z,20.48
2018-07-02T03:11:51.267Z,20.52
2018-07-02T03:12:23.302Z,20.54
2018-07-02T03:12:55.310Z,20.55
2018-07-02T03:13:27.375Z,20.57
2018-07-02T03:13:59.407Z,20.57
2018-07-02T03:14:31.411Z,20.58
2018-07-02T03:15:03.437Z,20.60
2018-07-02T03:15:35.442Z,20.59
2018-07-02T03:16:07.476Z,20.59
2018-07-02T03:16:39.462Z,20.52
2018-07-02T03:17:11.483Z,20.49
2018-07-02T03:17:43.486Z,20.49
2018-07-02T03:18:15.492Z,20.48
2018-07-02T03:18:47.518Z,20.39
2018-07-02T03:19:19.538Z,20.38
2018-07-02T03:19:51.550Z,20.43
2018-07-02T03:20:23.623Z,20.44
2018-07-02T03:20:55.580Z,20.47
2018-07-02T03:21:27.591Z,20.46
2018-07-02T03:21:59.602Z,20.44
2018-07-02T03:22:31.623Z,20.45
2018-07-02T03:23:03.639Z,20.42
2018-07-02T03:23:35.657Z,20.41
2018-07-02T03:24:07.698Z,20.41
2018-07-02T03:24:39.706Z,20.41
2018-07-02T03:25:11.733Z,20.40
2018-07-02T03:25:43.739Z,20.44
2018-07-02T03:26:15.740Z,20.45
2018-07-02T03:26:47.751Z,20.46
2018-07-02T03:27:19.786Z,20.45
2018-07-02T03:27:51.798Z,20.49
2018-07-02T03:28:23.828Z,20.54
2018-07-02T03:28:55.874Z,20.54
2018-07-02T03:29:27.906Z,20.55
2018-07-02T03:29:59.894Z,20.56
2018-07-02T03:30:31.903Z,20.61
2018-07-02T03:31:03.933Z,20.65
2018-07-02T03:31:35.954Z,20.64
2018-07-02T03:32:08.011Z,20.63
2018-07-02T03:32:40.024Z,20.58
2018-07-02T03:33:12.056Z,20.53
2018-07-02T03:33:44.062Z,20.48
2018-07-02T03:34:16.084Z,20.48
2018-07-02T03:34:48.107Z,20.47
2018-07-02T03:35:20.137Z,20.43
2018-07-02T03:35:52.166Z,20.43
2018-07-02T03:36:24.166Z,20.46
2018-07-02T03:36:56.170Z,20.49
2018-07-02T03:37:28.195Z,20.53
2018-07-02T03:38:00.200Z,20.57
2018-07-02T03:38:32.236Z,20.57
2018-07-02T03:39:04.249Z,20.56
2018-07-02T03:39:36.253Z,20.57
2018-07-02T03:40:08.270Z,20.58
2018-07-02T03:40:40.302Z,20.60
2018-07-02T03:41:12.314Z,20.63
2018-07-02T03:41:44.355Z,20.62
2018-07-02T03:42:16.382Z,20.58
2018-07-02T03:42:48.427Z,20.50
2018-07-02T03:43:20.428Z,20.50
2018-07-02T03:43:52.458Z,20.49
2018-07-02T03:44:24.480Z,20.52
2018-07-02T03:44:56.491Z,20.53
2018-07-02T03:45:28.515Z,20.50
2018-07-02T03:46:00.558Z,20.52
2018-07-02T03:46:32.573Z,20.58
2018-07-02T03:47:04.571Z,20.63
2018-07-02T03:47:36.570Z,20.67
2018-07-02T03:48:08.599Z,20.71
2018-07-02T03:48:40.643Z,20.68
2018-07-02T03:49:12.676Z,20.66
2018-07-02T03:49:44.706Z,20.60
2018-07-02T03:50:16.765Z,20.55
2018-07-02T03:50:48.783Z,20.54
2018-07-02T03:51:20.794Z,20.53
2018-07-02T03:51:52.999Z,20.52
2018-07-02T03:52:25.073Z,20.52
2018-07-02T03:52:57.122Z,20.52
2018-07-02T03:53:29.291Z,20.54
2018-07-02T03:54:01.353Z,20.60
2018-07-02T03:54:33.377Z,20.60
2018-07-02T03:55:05.387Z,20.64
2018-07-02T03:55:37.395Z,20.65
2018-07-02T03:56:09.399Z,20.70
2018-07-02T03:56:41.407Z,20.71
2018-07-02T03:57:13.438Z,20.73
2018-07-02T03:57:45.471Z,20.76
2018-07-02T03:58:17.496Z,20.75
2018-07-02T03:58:49.498Z,20.76
2018-07-02T03:59:21.521Z,20.80
2018-07-02T03:59:53.558Z,20.78
2018-07-02T04:00:25.575Z,20.72
2018-07-02T04:00:57.604Z,20.72
2018-07-02T04:01:29.618Z,20.69
2018-07-02T04:02:01.628Z,20.68
2018-07-02T04:02:33.652Z,20.67
2018-07-02T04:03:05.662Z,20.64
2018-07-02T04:03:37.704Z,20.64
2018-07-02T04:04:09.726Z,20.66
2018-07-02T04:04:41.763Z,20.66
2018-07-02T04:05:13.756Z,20.63
2018-07-02T04:05:45.799Z,20.56
2018-07-02T04:06:17.798Z,20.55
2018-07-02T04:06:49.827Z,20.54
2018-07-02T04:07:21.853Z,20.58
2018-07-02T04:07:53.873Z,20.66
2018-07-02T04:08:25.889Z,20.74
2018-07-02T04:08:57.933Z,20.78
2018-07-02T04:09:29.964Z,20.80
2018-07-02T04:10:01.979Z,20.82
2018-07-02T04:10:34.013Z,20.82
2018-07-02T04:11:06.041Z,20.83
2018-07-02T04:11:38.135Z,20.86
2018-07-02T04:12:10.211Z,20.83
2018-07-02T04:12:42.205Z,20.77
2018-07-02T04:13:14.222Z,20.81
2018-07-02T04:13:46.242Z,20.86
2018-07-02T04:14:18.265Z,20.84
2018-07-02T04:14:50.286Z,20.80
2018-07-02T04:15:22.355Z,20.79
2018-07-02T04:15:54.390Z,20.78
2018-07-02T04:16:26.394Z,20.80
2018-07-02T04:16:58.421Z,20.79
2018-07-02T04:17:30.482Z,20.81
2018-07-02T04:18:02.561Z,20.89
2018-07-02T04:18:34.576Z,20.99
2018-07-02T04:19:06.582Z,20.98
2018-07-02T04:19:38.599Z,21.00
2018-07-02T04:20:10.651Z,20.90
2018-07-02T04:20:42.680Z,20.78
2018-07-02T04:21:14.677Z,20.68
2018-07-02T04:21:46.679Z,20.63
2018-07-02T04:22:18.732Z,20.62
2018-07-02T04:22:50.750Z,20.64
2018-07-02T04:23:22.800Z,20.61
2018-07-02T04:23:54.811Z,20.54
2018-07-02T04:24:26.871Z,20.50
2018-07-02T04:24:58.884Z,20.49
2018-07-02T04:25:30.898Z,20.47
2018-07-02T04:26:02.907Z,20.42
2018-07-02T04:26:34.983Z,20.42
2018-07-02T04:27:06.994Z,20.40
2018-07-02T04:27:39.011Z,20.38
2018-07-02T04:28:11.042Z,20.38
2018-07-02T04:28:43.064Z,20.36
2018-07-02T04:29:15.081Z,20.37
2018-07-02T04:29:47.106Z,20.38
2018-07-02T04:30:19.139Z,20.37
2018-07-02T04:30:51.168Z,20.35
2018-07-02T04:31:23.188Z,20.35
2018-07-02T04:31:55.196Z,20.33
2018-07-02T04:32:27.221Z,20.35
2018-07-02T04:32:59.247Z,20.38
2018-07-02T04:33:31.260Z,20.40
2018-07-02T04:34:03.274Z,20.45
2018-07-02T04:34:35.279Z,20.50
2018-07-02T04:35:07.316Z,20.46
2018-07-02T04:35:39.313Z,20.50
2018-07-02T04:36:11.350Z,20.42
2018-07-02T04:36:43.408Z,20.40
2018-07-02T04:37:15.430Z,20.38
2018-07-02T04:37:47.439Z,20.32
2018-07-02T04:38:19.477Z,20.31
2018-07-02T04:38:51.483Z,20.27
2018-07-02T04:39:23.494Z,20.23
2018-07-02T04:39:55.500Z,20.19
2018-07-02T04:40:27.833Z,20.19
2018-07-02T04:40:59.531Z,20.19
2018-07-02T04:41:31.534Z,20.19
2018-07-02T04:42:03.543Z,20.20
2018-07-02T04:42:35.555Z,20.23
2018-07-02T04:43:07.589Z,20.23
2018-07-02T04:43:39.611Z,20.27
2018-07-02T04:44:11.782Z,20.36
2018-07-02T04:44:43.799Z,20.38
2018-07-02T04:45:15.830Z,20.39
2018-07-02T04:45:47.814Z,20.38
2018-07-02T04:46:19.856Z,20.34
2018-07-02T04:46:51.906Z,20.36
2018-07-02T04:47:24.054Z,20.31
2018-07-02T04:47:55.919Z,20.27
2018-07-02T04:48:27.938Z,20.19
2018-07-02T04:48:59.933Z,20.12
2018-07-02T04:49:31.950Z,20.05
2018-07-02T04:50:03.954Z,19.95
2018-07-02T04:50:35.973Z,19.95
2018-07-02T04:51:07.992Z,19.95
2018-07-02T04:51:40.003Z,19.96
2018-07-02T04:52:12.015Z,19.96
2018-07-02T04:52:44.029Z,19.96
2018-07-02T04:53:16.036Z,20.01
2018-07-02T04:53:48.086Z,20.02
2018-07-02T04:54:20.103Z,20.05
2018-07-02T04:54:52.109Z,20.04
2018-07-02T04:55:24.122Z,20.03
2018-07-02T04:55:56.161Z,20.01
2018-07-02T04:56:28.151Z,20.00
2018-07-02T04:57:00.151Z,20.00
2018-07-02T04:57:32.214Z,20.06
2018-07-02T04:58:04.175Z,20.08
2018-07-02T04:58:36.183Z,20.09
2018-07-02T04:59:08.210Z,20.05
2018-07-02T04:59:40.260Z,20.05
2018-07-02T05:00:12.252Z,20.03
2018-07-02T05:00:44.250Z,20.03
2018-07-02T05:01:16.273Z,19.99
2018-07-02T05:01:48.356Z,19.95
2018-07-02T05:02:20.362Z,19.92
2018-07-02T05:02:52.369Z,19.91
2018-07-02T05:03:24.388Z,19.87
2018-07-02T05:03:56.407Z,19.93
2018-07-02T05:04:28.444Z,19.96
2018-07-02T05:05:00.473Z,19.96
2018-07-02T05:05:32.476Z,19.93
2018-07-02T05:06:04.539Z,19.94
2018-07-02T05:06:36.543Z,19.90
2018-07-02T05:07:08.560Z,19.96
2018-07-02T05:07:40.578Z,19.97
2018-07-02T05:08:12.596Z,19.96
2018-07-02T05:08:44.598Z,19.99
2018-07-02T05:09:16.631Z,20.01
2018-07-02T05:09:48.634Z,19.93
2018-07-02T05:10:20.674Z,19.90
2018-07-02T05:10:52.689Z,19.88
2018-07-02T05:11:24.725Z,19.87
2018-07-02T05:11:56.730Z,19.91
2018-07-02T05:12:28.746Z,19.89
2018-07-02T05:13:00.772Z,19.87
2018-07-02T05:13:32.783Z,19.87
2018-07-02T05:14:04.807Z,19.91
2018-07-02T05:14:36.807Z,19.88
2018-07-02T05:15:08.826Z,19.92
2018-07-02T05:15:40.830Z,19.88
2018-07-02T05:16:12.857Z,19.88
2018-07-02T05:16:44.870Z,19.88
2018-07-02T05:17:16.889Z,19.88
2018-07-02T05:17:48.897Z,19.85
2018-07-02T05:18:20.909Z,19.87
2018-07-02T05:18:52.909Z,19.80
2018-07-02T05:19:24.942Z,19.81
2018-07-02T05:19:56.955Z,19.79
2018-07-02T05:20:28.955Z,19.79
2018-07-02T05:21:00.962Z,19.85
2018-07-02T05:21:33.009Z,19.87
2018-07-02T05:22:04.998Z,19.82
2018-07-02T05:22:37.004Z,19.80
2018-07-02T05:23:09.033Z,19.80
2018-07-02T05:23:41.038Z,19.79
2018-07-02T05:24:13.089Z,19.71
2018-07-02T05:24:45.094Z,19.79
2018-07-02T05:25:17.110Z,19.77
2018-07-02T05:25:49.139Z,19.76
2018-07-02T05:26:21.156Z,19.80
2018-07-02T05:26:53.175Z,19.83
2018-07-02T05:27:25.194Z,19.79
2018-07-02T05:27:57.210Z,19.86
2018-07-02T05:28:29.260Z,19.95
2018-07-02T05:29:01.274Z,19.93
2018-07-02T05:29:33.315Z,19.92
2018-07-02T05:30:05.330Z,19.96
2018-07-02T05:30:37.338Z,19.92
2018-07-02T05:31:09.348Z,19.92
2018-07-02T05:31:41.378Z,19.91
2018-07-02T05:32:13.432Z,19.92
2018-07-02T05:32:45.451Z,19.95
2018-07-02T05:33:17.456Z,20.01
2018-07-02T05:33:49.503Z,20.04
2018-07-02T05:34:21.518Z,20.06
2018-07-02T05:34:53.535Z,20.08
2018-07-02T05:35:25.553Z,20.06
2018-07-02T05:35:57.610Z,20.08
2018-07-02T05:36:29.595Z,20.16
2018-07-02T05:37:01.602Z,20.16
2018-07-02T05:37:33.623Z,20.13
2018-07-02T05:38:05.631Z,20.13
2018-07-02T05:38:37.666Z,20.10
2018-07-02T05:39:09.673Z,20.09
2018-07-02T05:39:41.706Z,20.03
2018-07-02T05:40:13.754Z,20.00
2018-07-02T05:40:45.771Z,19.99
2018-07-02T05:41:17.780Z,19.95
2018-07-02T05:41:49.813Z,19.99
2018-07-02T05:42:21.870Z,19.96
2018-07-02T05:42:53.866Z,19.93
2018-07-02T05:43:25.881Z,19.88
2018-07-02T05:43:57.902Z,19.89
2018-07-02T05:44:29.914Z,19.87
2018-07-02T05:45:01.938Z,19.86
2018-07-02T05:45:33.934Z,19.83
2018-07-02T05:46:05.963Z,19.97
2018-07-02T05:46:37.992Z,20.01
2018-07-02T05:47:10.031Z,20.00
2018-07-02T05:47:42.048Z,19.97
2018-07-02T05:48:14.066Z,20.01
2018-07-02T05:48:46.092Z,19.96
2018-07-02T05:49:18.196Z,19.95
2018-07-02T05:49:50.211Z,19.95
2018-07-02T05:50:22.226Z,19.96
2018-07-02T05:50:54.269Z,19.99
2018-07-02T05:51:26.339Z,20.06
2018-07-02T05:51:58.358Z,20.05
2018-07-02T05:52:30.350Z,20.10
2018-07-02T05:53:02.372Z,20.04
2018-07-02T05:53:34.382Z,20.00
2018-07-02T05:54:06.423Z,20.00
2018-07-02T05:54:38.434Z,19.91
2018-07-02T05:55:10.450Z,19.88
2018-07-02T05:55:42.448Z,19.89
2018-07-02T05:56:14.442Z,19.89
2018-07-02T05:56:46.457Z,19.92
2018-07-02T05:57:18.474Z,19.88
2018-07-02T05:57:50.529Z,19.86
2018-07-02T05:58:22.541Z,19.89
2018-07-02T05:58:54.620Z,19.94
2018-07-02T05:59:26.669Z,20.07
2018-07-02T05:59:58.681Z,20.10
2018-07-02T06:00:30.788Z,20.08
2018-07-02T06:01:02.737Z,20.07
2018-07-02T06:01:34.738Z,20.04
2018-07-02T06:02:06.773Z,20.03
2018-07-02T06:02:38.798Z,20.06
2018-07-02T06:03:10.807Z,20.07
2018-07-02T06:03:42.831Z,20.06
2018-07-02T06:04:14.849Z,20.06
2018-07-02T06:04:46.855Z,20.01
2018-07-02T06:05:18.889Z,20.00
2018-07-02T06:05:50.913Z,19.95
2018-07-02T06:06:22.961Z,19.96
2018-07-02T06:06:54.976Z,19.95
2018-07-02T06:07:26.994Z,19.96
2018-07-02T06:07:59.097Z,20.05
2018-07-02T06:08:31.048Z,20.01
2018-07-02T06:09:03.063Z,20.02
2018-07-02T06:09:35.114Z,20.01
2018-07-02T06:10:07.135Z,20.03
2018-07-02T06:10:39.185Z,20.02
2018-07-02T06:11:11.180Z,20.03
2018-07-02T06:11:43.220Z,20.03
2018-07-02T06:12:15.219Z,20.04
2018-07-02T06:12:47.274Z,20.08
2018-07-02T06:13:19.327Z,20.12
2018-07-02T06:13:51.322Z,20.10
2018-07-02T06:14:23.347Z,20.15
2018-07-02T06:14:55.380Z,20.18
2018-07-02T06:15:27.437Z,20.20
2018-07-02T06:15:59.455Z,20.17
2018-07-02T06:16:31.533Z,20.14
2018-07-02T06:17:03.495Z,20.12
2018-07-02T06:17:35.506Z,20.05
2018-07-02T06:18:07.528Z,20.04
2018-07-02T06:18:39.543Z,20.07
2018-07-02T06:19:11.604Z,20.07
2018-07-02T06:19:43.619Z,20.11
2018-07-02T06:20:15.639Z,20.08
2018-07-02T06:20:47.664Z,20.03
2018-07-02T06:21:19.707Z,20.02
2018-07-02T06:21:51.742Z,20.03
2018-07-02T06:22:23.803Z,20.05
2018-07-02T06:22:55.838Z,20.05
2018-07-02T06:23:27.836Z,20.08
2018-07-02T06:23:59.899Z,20.14
2018-07-02T06:24:31.886Z,20.17
2018-07-02T06:25:03.885Z,20.23
2018-07-02T06:25:35.913Z,20.27
2018-07-02T06:26:07.926Z,20.37
2018-07-02T06:26:39.955Z,20.39
2018-07-02T06:27:11.970Z,20.37
2018-07-02T06:27:44.005Z,20.35
2018-07-02T06:28:16.023Z,20.32
2018-07-02T06:28:48.055Z,20.26
2018-07-02T06:29:20.063Z,20.22
2018-07-02T06:29:52.106Z,20.27
2018-07-02T06:30:24.209Z,20.20
2018-07-02T06:30:56.228Z,20.24
2018-07-02T06:31:28.251Z,20.21
2018-07-02T06:32:00.289Z,20.22
2018-07-02T06:32:32.312Z,20.20
2018-07-02T06:33:04.307Z,20.26
2018-07-02T06:33:36.393Z,20.32
2018-07-02T06:34:08.412Z,20.37
2018-07-02T06:34:40.429Z,20.38
2018-07-02T06:35:12.434Z,20.41
2018-07-02T06:35:44.467Z,20.38
2018-07-02T06:36:16.466Z,20.39
2018-07-02T06:36:48.490Z,20.33
2018-07-02T06:37:20.515Z,20.35
2018-07-02T06:37:52.529Z,20.37
2018-07-02T06:38:24.534Z,20.37
2018-07-02T06:38:56.551Z,20.35
2018-07-02T06:39:28.568Z,20.36
2018-07-02T06:40:00.576Z,20.41
2018-07-02T06:40:32.623Z,20.43
2018-07-02T06:41:04.650Z,20.44
2018-07-02T06:41:36.667Z,20.43
2018-07-02T06:42:08.725Z,20.39
2018-07-02T06:42:40.717Z,20.38
2018-07-02T06:43:12.800Z,20.38
2018-07-02T06:43:44.818Z,20.44
2018-07-02T06:44:16.831Z,20.49
2018-07-02T06:44:48.854Z,20.49
2018-07-02T06:45:20.855Z,20.55
2018-07-02T06:45:52.873Z,20.58
2018-07-02T06:46:24.918Z,20.63
2018-07-02T06:46:57.064Z,20.64
2018-07-02T06:47:29.088Z,20.65
2018-07-02T06:48:01.109Z,20.64
2018-07-02T06:48:33.161Z,20.66
2018-07-02T06:49:05.142Z,20.68
2018-07-02T06:49:37.159Z,20.71
2018-07-02T06:50:09.174Z,20.73
2018-07-02T06:50:41.194Z,20.68
2018-07-02T06:51:13.235Z,20.70
2018-07-02T06:51:45.268Z,20.69
2018-07-02T06:52:17.295Z,20.66